Time;durP1;ratioP1;P1;durP2;ratioP2;P2;SDS_P1;SDS_P2;PMS_P1;PMS_P2;Temp;Humidity;BMP_temperature;BMP_pressure;BME280_temperature;BME280_humidity;BME280_pressure;Samples;Min_cycle;Max_cycle;Signal;HPM_P1;HPM_P2
2022/09/11 00:01:47;;;;;;;4.22;3.47;;;17.80;81.00;;;;;;5090170;28;20387;-69
2022/09/11 00:04:13;;;;;;;5.18;3.17;;;17.70;80.80;;;;;;5082266;28;20361;-69
2022/09/11 00:06:39;;;;;;;4.43;3.38;;;17.80;80.90;;;;;;5093396;28;20036;-69
2022/09/11 00:09:06;;;;;;;4.85;3.50;;;17.70;80.70;;;;;;5092572;28;20040;-72
2022/09/11 00:11:39;;;;;;;8.65;3.72;;;17.70;80.70;;;;;;5095924;28;20031;-72
2022/09/11 00:14:05;;;;;;;6.00;3.72;;;17.70;80.70;;;;;;5087308;28;20587;-72
2022/09/11 00:16:36;;;;;;;5.60;3.78;;;17.70;80.80;;;;;;5082579;28;20479;-72
2022/09/11 00:19:11;;;;;;;4.57;3.45;;;17.60;80.80;;;;;;5091325;28;20521;-72
2022/09/11 00:21:36;;;;;;;6.90;3.83;;;17.60;81.30;;;;;;5087213;28;20079;-72
2022/09/11 00:24:03;;;;;;;6.25;3.33;;;17.60;80.70;;;;;;5073894;28;20113;-69
2022/09/11 00:26:29;;;;;;;3.60;2.55;;;17.60;80.70;;;;;;5082447;28;20529;-69
2022/09/11 00:28:56;;;;;;;3.38;2.22;;;17.60;80.60;;;;;;5092893;28;20024;-69
2022/09/11 00:31:24;;;;;;;3.03;2.35;;;17.50;80.60;;;;;;5101545;28;20032;-69
2022/09/11 00:33:50;;;;;;;3.65;2.75;;;17.50;80.70;;;;;;5090882;28;20081;-72
2022/09/11 00:36:23;;;;;;;4.15;2.90;;;17.40;80.70;;;;;;5085613;28;20060;-72
2022/09/11 00:38:49;;;;;;;5.43;3.20;;;17.30;80.70;;;;;;5085994;28;20020;-69
2022/09/11 00:41:19;;;;;;;5.85;3.15;;;17.30;80.90;;;;;;5096442;28;20054;-69
2022/09/11 00:43:59;;;;;;;2.42;1.83;;;17.20;80.80;;;;;;5094626;28;20033;-70
2022/09/11 00:46:40;;;;;;;3.42;3.05;;;17.30;80.90;;;;;;5075177;28;20034;-69
2022/09/11 00:49:31;;;;;;;4.23;2.83;;;17.20;80.80;;;;;;5097158;28;20034;-70
2022/09/11 00:52:02;;;;;;;3.80;2.83;;;17.20;80.80;;;;;;5090009;28;20578;-69
2022/09/11 00:54:32;;;;;;;4.65;3.35;;;17.10;80.90;;;;;;5097018;28;20093;-69
2022/09/11 00:57:01;;;;;;;6.20;3.72;;;17.10;81.10;;;;;;5098817;28;20099;-69
2022/09/11 00:59:30;;;;;;;5.82;3.72;;;17.00;81.20;;;;;;5091379;28;20155;-70
2022/09/11 01:01:55;;;;;;;5.32;3.75;;;17.10;81.30;;;;;;5089238;28;20482;-68
2022/09/11 01:04:22;;;;;;;8.13;3.38;;;17.00;81.20;;;;;;5069127;28;20025;-69
2022/09/11 01:06:55;;;;;;;3.25;2.50;;;17.10;81.20;;;;;;5094617;28;20331;-72
2022/09/11 01:09:22;;;;;;;3.47;2.50;;;17.10;81.20;;;;;;5096973;28;20034;-69
2022/09/11 01:12:02;;;;;;;3.45;2.22;;;17.10;81.10;;;;;;5089934;28;20024;-68
2022/09/11 01:14:46;;;;;;;6.78;4.40;;;17.20;81.00;;;;;;5097801;28;20028;-70
2022/09/11 01:17:34;;;;;;;5.20;3.30;;;17.10;80.90;;;;;;5085313;28;20103;-69
2022/09/11 01:20:18;;;;;;;3.97;2.92;;;17.20;80.80;;;;;;5098893;28;20468;-70
2022/09/11 01:23:06;;;;;;;4.05;2.97;;;17.10;80.70;;;;;;5086465;28;20178;-70
2022/09/11 01:25:47;;;;;;;5.60;4.00;;;17.20;80.80;;;;;;5087164;28;20490;-72
2022/09/11 01:28:24;;;;;;;4.13;3.25;;;17.10;80.70;;;;;;5089411;28;20073;-70
2022/09/11 01:30:55;;;;;;;8.15;3.95;;;17.10;80.80;;;;;;5088649;28;20020;-73
2022/09/11 01:33:36;;;;;;;4.93;3.83;;;17.10;80.80;;;;;;5086938;28;20019;-70
2022/09/11 01:36:16;;;;;;;5.80;4.15;;;17.00;80.80;;;;;;5087869;28;20258;-70
2022/09/11 01:38:55;;;;;;;5.82;4.22;;;17.00;80.90;;;;;;5080785;28;20021;-69
2022/09/11 01:41:44;;;;;;;7.53;5.20;;;17.00;81.00;;;;;;5084133;28;20602;-72
2022/09/11 01:44:25;;;;;;;9.30;3.95;;;17.00;81.20;;;;;;5087736;28;20028;-72
2022/09/11 01:46:52;;;;;;;6.45;4.28;;;16.90;81.20;;;;;;5080917;28;20047;-72
2022/09/11 01:49:21;;;;;;;6.78;4.35;;;16.90;81.30;;;;;;5097656;28;20119;-72
2022/09/11 01:51:51;;;;;;;5.97;4.50;;;16.90;81.50;;;;;;5086422;28;20017;-72
2022/09/11 01:54:19;;;;;;;5.20;3.92;;;16.90;81.70;;;;;;5087855;28;20038;-69
2022/09/11 01:56:55;;;;;;;10.48;4.40;;;16.90;81.70;;;;;;5093737;28;20031;-69
2022/09/11 01:59:30;;;;;;;7.35;4.82;;;16.90;81.60;;;;;;5089164;28;20522;-70
2022/09/11 02:02:20;;;;;;;6.30;4.05;;;16.90;81.80;;;;;;5082364;28;20021;-69
2022/09/11 02:04:52;;;;;;;8.75;5.50;;;16.90;81.70;;;;;;5095079;28;20027;-70
2022/09/11 02:07:23;;;;;;;7.70;5.05;;;16.90;81.90;;;;;;5078811;28;20023;-69
2022/09/11 02:09:58;;;;;;;6.18;4.63;;;16.90;82.00;;;;;;5092457;28;20391;-70
2022/09/11 02:12:30;;;;;;;8.45;5.20;;;16.90;82.00;;;;;;5103083;28;20020;-69
2022/09/11 02:14:56;;;;;;;8.52;5.05;;;16.90;82.00;;;;;;5089632;28;20089;-72
2022/09/11 02:17:42;;;;;;;7.10;4.28;;;16.90;82.10;;;;;;5096321;28;20028;-72
2022/09/11 02:20:09;;;;;;;9.02;5.82;;;16.90;82.00;;;;;;5098785;28;20102;-72
2022/09/11 02:22:35;;;;;;;5.82;4.53;;;16.90;82.00;;;;;;5088559;28;20039;-69
2022/09/11 02:25:02;;;;;;;6.05;4.85;;;16.90;82.00;;;;;;5087486;28;20057;-70
2022/09/11 02:27:30;;;;;;;7.40;5.18;;;16.90;81.90;;;;;;5089819;28;20020;-70
2022/09/11 02:29:57;;;;;;;8.32;4.47;;;16.90;81.90;;;;;;5090232;28;20099;-70
2022/09/11 02:32:25;;;;;;;10.20;5.38;;;16.90;82.00;;;;;;5088790;28;20036;-72
2022/09/11 02:34:54;;;;;;;8.07;4.68;;;16.90;81.90;;;;;;5097683;28;20399;-72
2022/09/11 02:37:48;;;;;;;6.85;5.13;;;16.90;81.80;;;;;;5091050;28;20021;-70
2022/09/11 02:40:45;;;;;;;8.07;4.82;;;16.90;81.60;;;;;;5092739;28;20047;-72
2022/09/11 02:43:24;;;;;;;8.00;5.57;;;16.90;81.60;;;;;;5092807;28;20073;-70
2022/09/11 02:46:09;;;;;;;6.43;4.63;;;16.80;81.80;;;;;;5092409;28;20078;-70
2022/09/11 02:49:08;;;;;;;7.47;5.65;;;16.80;81.80;;;;;;5080135;28;20034;-70
2022/09/11 02:51:58;;;;;;;7.45;4.55;;;16.80;81.80;;;;;;5092393;28;20032;-70
2022/09/11 02:54:46;;;;;;;5.72;4.10;;;16.80;81.90;;;;;;5092242;28;20055;-72
2022/09/11 02:57:41;;;;;;;6.10;4.82;;;16.70;81.80;;;;;;5095972;28;20437;-72
2022/09/11 03:00:08;;;;;;;7.18;3.92;;;16.80;81.80;;;;;;5087623;28;20044;-70
2022/09/11 03:02:38;;;;;;;6.72;4.57;;;16.70;81.70;;;;;;5085986;28;20028;-70
2022/09/11 03:05:05;;;;;;;7.72;4.03;;;16.70;81.60;;;;;;5098012;28;20031;-73
2022/09/11 03:07:32;;;;;;;8.15;4.75;;;16.70;81.50;;;;;;5090984;28;20074;-72
2022/09/11 03:09:57;;;;;;;6.82;4.35;;;16.70;81.40;;;;;;5100426;28;20434;-73
2022/09/11 03:12:23;;;;;;;8.23;5.07;;;16.70;81.40;;;;;;5096379;28;20021;-73
2022/09/11 03:14:49;;;;;;;8.18;4.50;;;16.70;81.40;;;;;;5073548;28;20035;-72
2022/09/11 03:17:16;;;;;;;6.43;3.90;;;16.60;81.50;;;;;;5100852;28;20040;-73
2022/09/11 03:19:41;;;;;;;6.18;3.97;;;16.50;81.60;;;;;;5080264;28;20033;-70
2022/09/11 03:22:07;;;;;;;4.82;3.50;;;16.50;81.60;;;;;;5096242;28;20051;-70
2022/09/11 03:24:33;;;;;;;3.90;2.90;;;16.40;81.50;;;;;;5091087;28;20118;-71
2022/09/11 03:26:59;;;;;;;3.97;2.97;;;16.40;81.50;;;;;;5079008;28;20038;-71
2022/09/11 03:29:24;;;;;;;4.57;3.20;;;16.30;81.50;;;;;;5091528;28;20614;-70
2022/09/11 03:31:50;;;;;;;3.70;2.95;;;16.30;81.60;;;;;;5094252;28;20107;-70
2022/09/11 03:34:16;;;;;;;4.43;2.80;;;16.20;81.50;;;;;;5101290;28;20034;-73
2022/09/11 03:36:43;;;;;;;6.82;3.05;;;16.20;81.50;;;;;;5087070;28;20028;-73
2022/09/11 03:39:08;;;;;;;3.60;2.45;;;16.10;81.40;;;;;;5096661;28;20044;-73
2022/09/11 03:41:34;;;;;;;2.15;1.95;;;16.10;81.40;;;;;;5088467;28;20837;-73
2022/09/11 03:44:00;;;;;;;2.90;2.22;;;16.10;81.40;;;;;;5082075;28;20110;-73
2022/09/11 03:46:26;;;;;;;4.75;3.25;;;16.00;81.30;;;;;;5102526;28;20593;-73
2022/09/11 03:48:52;;;;;;;4.25;2.78;;;16.00;81.20;;;;;;5105366;28;20653;-73
2022/09/11 03:51:19;;;;;;;2.30;2.08;;;16.00;81.10;;;;;;5086676;28;20279;-73
2022/09/11 03:53:45;;;;;;;3.42;2.13;;;16.00;80.90;;;;;;5098040;28;20040;-73
2022/09/11 03:56:11;;;;;;;5.20;3.25;;;16.00;80.80;;;;;;5094224;28;20479;-73
2022/09/11 03:58:37;;;;;;;2.90;2.47;;;16.00;80.70;;;;;;5086008;28;20036;-73
2022/09/11 04:01:14;;;;;;;5.85;2.63;;;16.00;80.70;;;;;;5088230;28;20055;-73
2022/09/11 04:03:40;;;;;;;3.13;2.53;;;16.00;80.60;;;;;;5082993;28;20390;-73
2022/09/11 04:06:07;;;;;;;4.35;2.85;;;16.00;80.60;;;;;;5076508;28;20024;-72
2022/09/11 04:08:33;;;;;;;4.25;2.83;;;15.90;80.60;;;;;;5074381;28;20048;-73
2022/09/11 04:11:04;;;;;;;2.25;2.00;;;15.90;80.60;;;;;;5081459;28;20032;-73
2022/09/11 04:13:32;;;;;;;3.95;2.67;;;15.80;80.70;;;;;;5075438;28;20163;-73
2022/09/11 04:16:03;;;;;;;2.72;2.35;;;15.80;80.70;;;;;;5086722;28;20016;-73
2022/09/11 04:18:31;;;;;;;5.50;2.70;;;15.70;80.70;;;;;;5096380;28;20454;-74
2022/09/11 04:20:57;;;;;;;3.70;2.28;;;15.70;80.70;;;;;;5075096;28;20009;-72
2022/09/11 04:23:23;;;;;;;4.28;2.47;;;15.70;80.50;;;;;;5084972;28;20024;-72
2022/09/11 04:25:48;;;;;;;2.45;2.08;;;15.80;80.40;;;;;;5072414;28;20032;-72
2022/09/11 04:28:14;;;;;;;4.57;2.92;;;15.80;80.30;;;;;;5077554;28;20017;-72
2022/09/11 04:30:41;;;;;;;2.00;1.77;;;15.80;80.30;;;;;;5071626;28;20039;-72
2022/09/11 04:33:07;;;;;;;3.72;2.40;;;15.80;80.20;;;;;;5072118;28;20428;-71
2022/09/11 04:35:37;;;;;;;3.13;2.30;;;15.70;80.20;;;;;;5073806;28;20074;-70
2022/09/11 04:38:03;;;;;;;3.83;2.60;;;15.70;80.10;;;;;;5088720;28;20088;-71
2022/09/11 04:40:28;;;;;;;2.60;2.08;;;15.70;80.10;;;;;;5099956;28;20032;-72
2022/09/11 04:42:54;;;;;;;3.13;2.45;;;15.70;80.10;;;;;;5086871;28;20111;-72
2022/09/11 04:45:20;;;;;;;2.15;1.50;;;15.70;80.00;;;;;;5096210;28;20032;-72
2022/09/11 04:47:45;;;;;;;6.82;1.85;;;15.60;79.90;;;;;;5088700;28;20024;-72
2022/09/11 04:50:11;;;;;;;2.55;2.20;;;15.60;79.80;;;;;;5090614;28;20020;-72
2022/09/11 04:52:38;;;;;;;2.35;1.77;;;15.60;79.70;;;;;;5085111;28;20028;-72
2022/09/11 04:55:04;;;;;;;3.53;2.70;;;15.60;79.70;;;;;;5091619;28;20552;-68
2022/09/11 04:57:30;;;;;;;2.90;1.90;;;15.60;79.70;;;;;;5089332;28;20047;-69
2022/09/11 04:59:57;;;;;;;3.70;2.25;;;15.50;79.70;;;;;;5091251;28;20515;-72
2022/09/11 05:02:23;;;;;;;2.53;2.33;;;15.50;79.60;;;;;;5089692;28;20032;-71
2022/09/11 05:04:48;;;;;;;2.88;2.22;;;15.50;79.60;;;;;;5095812;28;20431;-69
2022/09/11 05:07:14;;;;;;;2.25;2.05;;;15.50;79.60;;;;;;5089661;28;20031;-68
2022/09/11 05:09:39;;;;;;;3.17;2.25;;;15.50;79.50;;;;;;5085853;28;20039;-71
2022/09/11 05:12:05;;;;;;;4.20;2.97;;;15.40;79.50;;;;;;5090962;28;20073;-69
2022/09/11 05:14:31;;;;;;;3.22;2.10;;;15.40;79.50;;;;;;5092219;28;20050;-71
2022/09/11 05:16:57;;;;;;;4.13;2.42;;;15.40;79.50;;;;;;5088174;28;20040;-72
2022/09/11 05:19:24;;;;;;;3.10;2.45;;;15.40;79.60;;;;;;5086290;28;20032;-73
2022/09/11 05:21:50;;;;;;;3.97;2.25;;;15.40;79.60;;;;;;5081775;28;20060;-68
2022/09/11 05:24:16;;;;;;;3.22;2.13;;;15.40;79.60;;;;;;5084959;28;20039;-69
2022/09/11 05:26:42;;;;;;;2.33;2.05;;;15.40;79.50;;;;;;5080209;28;20391;-69
2022/09/11 05:29:12;;;;;;;2.60;1.90;;;15.40;79.50;;;;;;5082002;28;20026;-69
2022/09/11 05:31:38;;;;;;;2.45;2.00;;;15.40;79.50;;;;;;5083270;28;20398;-71
2022/09/11 05:34:04;;;;;;;2.92;2.28;;;15.40;79.50;;;;;;5088202;28;20115;-71
2022/09/11 05:36:31;;;;;;;2.08;1.73;;;15.50;79.50;;;;;;5082105;28;20687;-72
2022/09/11 05:38:57;;;;;;;2.90;2.03;;;15.50;79.50;;;;;;5079624;28;20032;-71
2022/09/11 05:41:23;;;;;;;2.35;1.73;;;15.50;79.40;;;;;;5083974;28;20479;-72
2022/09/11 05:43:50;;;;;;;4.35;2.95;;;15.50;79.50;;;;;;5082071;28;20039;-69
2022/09/11 05:46:17;;;;;;;1.95;1.77;;;15.50;79.50;;;;;;5085538;28;20499;-70
2022/09/11 05:48:43;;;;;;;2.88;2.20;;;15.50;79.40;;;;;;5090345;28;20022;-69
2022/09/11 05:51:18;;;;;;;2.00;1.65;;;15.50;79.50;;;;;;5082201;28;20024;-70
2022/09/11 05:53:45;;;;;;;1.83;1.70;;;15.50;79.40;;;;;;5089911;28;20066;-70
2022/09/11 05:56:14;;;;;;;3.08;2.38;;;15.50;79.50;;;;;;5082875;28;20047;-70
2022/09/11 05:58:40;;;;;;;3.95;2.63;;;15.60;79.50;;;;;;5079362;28;20036;-69
2022/09/11 06:01:08;;;;;;;3.10;2.60;;;15.60;79.60;;;;;;5084126;28;20059;-70
2022/09/11 06:03:35;;;;;;;2.08;1.88;;;15.60;79.70;;;;;;5077980;28;20119;-70
2022/09/11 06:06:03;;;;;;;3.17;2.30;;;15.70;79.80;;;;;;5076466;28;20100;-69
2022/09/11 06:08:30;;;;;;;2.53;1.88;;;15.80;79.90;;;;;;5076303;28;20042;-70
2022/09/11 06:10:57;;;;;;;2.88;1.92;;;15.80;79.70;;;;;;5080055;28;20025;-70
2022/09/11 06:13:24;;;;;;;2.75;2.47;;;15.90;79.80;;;;;;5080622;28;20028;-72
2022/09/11 06:15:50;;;;;;;3.28;2.45;;;15.90;79.80;;;;;;5073858;28;20027;-71
2022/09/11 06:18:16;;;;;;;4.28;2.75;;;16.00;79.80;;;;;;5082333;28;20024;-72
2022/09/11 06:20:42;;;;;;;4.05;2.35;;;16.00;79.90;;;;;;5092915;28;20055;-72
2022/09/11 06:23:09;;;;;;;2.95;2.50;;;16.10;80.00;;;;;;5091042;28;20016;-72
2022/09/11 06:25:36;;;;;;;2.63;2.28;;;16.10;80.10;;;;;;5079623;28;20469;-72
2022/09/11 06:28:02;;;;;;;2.65;2.45;;;16.10;80.20;;;;;;5073291;28;20105;-72
2022/09/11 06:30:28;;;;;;;2.97;2.67;;;16.20;80.30;;;;;;5082886;28;20036;-72
2022/09/11 06:32:55;;;;;;;2.80;2.35;;;16.20;80.30;;;;;;5075571;28;20038;-72
2022/09/11 06:35:22;;;;;;;3.05;2.30;;;16.30;80.30;;;;;;5104984;27;20067;-73
2022/09/11 06:37:48;;;;;;;2.47;2.03;;;16.40;80.50;;;;;;5090619;28;20086;-72
2022/09/11 06:40:14;;;;;;;3.78;2.47;;;16.40;80.50;;;;;;5087474;28;20089;-72
2022/09/11 06:42:39;;;;;;;2.20;1.92;;;16.50;80.40;;;;;;5089610;28;20437;-72
2022/09/11 06:45:07;;;;;;;4.13;2.88;;;16.60;80.30;;;;;;5083957;28;20123;-72
2022/09/11 06:47:33;;;;;;;2.05;1.83;;;16.70;80.20;;;;;;5078020;28;20032;-73
2022/09/11 06:49:58;;;;;;;3.17;2.70;;;16.70;80.80;;;;;;5085962;28;20020;-73
2022/09/11 06:52:24;;;;;;;5.60;3.10;;;16.70;80.40;;;;;;5088206;28;20025;-72
2022/09/11 06:54:50;;;;;;;2.67;1.90;;;16.80;80.50;;;;;;5081687;28;20036;-74
2022/09/11 06:57:15;;;;;;;2.33;1.88;;;16.80;80.70;;;;;;5085643;28;20046;-71
2022/09/11 06:59:42;;;;;;;4.30;3.25;;;16.90;80.80;;;;;;5081703;28;20044;-71
2022/09/11 07:02:08;;;;;;;8.07;2.55;;;17.00;80.70;;;;;;5085465;28;20050;-71
2022/09/11 07:04:34;;;;;;;2.65;2.28;;;17.00;80.70;;;;;;5086866;28;20652;-70
2022/09/11 07:07:00;;;;;;;3.13;2.83;;;17.00;80.70;;;;;;5082542;28;20107;-71
2022/09/11 07:09:25;;;;;;;3.10;2.75;;;17.10;80.80;;;;;;5085948;28;20037;-71
2022/09/11 07:11:52;;;;;;;3.50;2.63;;;17.20;80.80;;;;;;5088754;28;20086;-71
2022/09/11 07:14:20;;;;;;;4.38;3.25;;;17.30;80.80;;;;;;5089908;28;20339;-71
2022/09/11 07:16:48;;;;;;;4.85;3.38;;;17.50;80.80;;;;;;5087389;28;20032;-71
2022/09/11 07:19:17;;;;;;;3.63;2.65;;;17.50;81.20;;;;;;5075778;28;20052;-70
2022/09/11 07:21:42;;;;;;;3.33;2.92;;;17.50;81.10;;;;;;5100616;28;20027;-70
2022/09/11 07:24:08;;;;;;;6.63;3.60;;;17.70;81.10;;;;;;5070865;28;20032;-70
2022/09/11 07:26:35;;;;;;;4.22;3.80;;;17.70;81.10;;;;;;5079909;28;20332;-72
2022/09/11 07:29:01;;;;;;;3.78;2.85;;;17.80;81.00;;;;;;5084539;28;20043;-71
2022/09/11 07:31:29;;;;;;;5.82;3.80;;;17.90;81.20;;;;;;5078428;28;20029;-70
2022/09/11 07:33:55;;;;;;;5.32;3.67;;;18.00;81.20;;;;;;5091886;28;20421;-72
2022/09/11 07:36:25;;;;;;;3.97;3.22;;;18.10;81.00;;;;;;5086491;28;20543;-70
2022/09/11 07:38:53;;;;;;;5.25;4.13;;;18.20;80.80;;;;;;5091646;28;20062;-70
2022/09/11 07:41:21;;;;;;;4.78;4.05;;;18.30;80.80;;;;;;5084192;28;20035;-70
2022/09/11 07:43:50;;;;;;;4.43;4.03;;;18.40;80.80;;;;;;5083565;28;20494;-71
2022/09/11 07:46:16;;;;;;;5.30;4.28;;;18.50;80.60;;;;;;5087203;28;20070;-70
2022/09/11 07:48:42;;;;;;;5.30;4.32;;;18.60;80.30;;;;;;5069108;28;20433;-70
2022/09/11 07:51:13;;;;;;;4.70;3.95;;;18.60;80.20;;;;;;5084534;28;20115;-71
2022/09/11 07:53:47;;;;;;;5.95;4.07;;;18.70;80.40;;;;;;5086774;28;20024;-70
2022/09/11 07:56:24;;;;;;;6.82;4.90;;;18.70;80.60;;;;;;5089818;28;20027;-70
2022/09/11 07:58:51;;;;;;;7.10;5.32;;;18.70;80.70;;;;;;5078384;28;20559;-70
2022/09/11 08:01:19;;;;;;;5.35;4.30;;;18.70;80.80;;;;;;5082632;28;20419;-70
2022/09/11 08:03:45;;;;;;;6.40;4.68;;;18.70;81.00;;;;;;5081728;28;20118;-70
2022/09/11 08:06:16;;;;;;;7.40;4.72;;;18.60;81.00;;;;;;5089916;28;20118;-71
2022/09/11 08:08:42;;;;;;;6.53;4.53;;;18.60;81.00;;;;;;5086615;28;20031;-71
2022/09/11 08:11:13;;;;;;;5.70;4.45;;;18.60;80.90;;;;;;5068231;28;20035;-70
2022/09/11 08:13:40;;;;;;;6.43;4.85;;;18.60;81.00;;;;;;5084044;28;20028;-70
2022/09/11 08:16:06;;;;;;;4.40;3.80;;;18.70;81.10;;;;;;5084627;28;20036;-70
2022/09/11 08:18:34;;;;;;;4.57;3.85;;;18.80;81.00;;;;;;5081258;28;20390;-70
2022/09/11 08:21:04;;;;;;;7.25;4.40;;;18.90;80.90;;;;;;5070452;28;20031;-72
2022/09/11 08:23:31;;;;;;;6.80;4.60;;;18.90;80.90;;;;;;5082404;28;20135;-72
2022/09/11 08:26:05;;;;;;;5.15;4.50;;;19.00;80.80;;;;;;5072279;28;20024;-70
2022/09/11 08:28:33;;;;;;;6.47;4.43;;;19.10;80.80;;;;;;5075708;28;20574;-71
2022/09/11 08:31:00;;;;;;;6.00;4.30;;;19.00;80.80;;;;;;5072525;28;20020;-71
2022/09/11 08:33:29;;;;;;;7.18;3.80;;;19.00;80.90;;;;;;5084396;28;20390;-71
2022/09/11 08:35:57;;;;;;;4.18;3.08;;;19.10;81.10;;;;;;5077447;28;20028;-68
2022/09/11 08:38:23;;;;;;;6.55;3.95;;;19.20;81.00;;;;;;5074759;28;20361;-70
2022/09/11 08:40:50;;;;;;;5.93;3.13;;;19.30;80.80;;;;;;5077269;28;20487;-70
2022/09/11 08:43:31;;;;;;;3.47;2.85;;;19.40;80.60;;;;;;5088588;28;20012;-72
2022/09/11 08:46:04;;;;;;;3.50;3.15;;;19.50;80.40;;;;;;5087860;28;20030;-74
2022/09/11 08:48:51;;;;;;;6.50;4.25;;;19.60;80.20;;;;;;5086082;28;20034;-71
2022/09/11 08:51:17;;;;;;;4.32;3.13;;;19.60;80.40;;;;;;5075481;28;20016;-70
2022/09/11 08:53:44;;;;;;;4.82;3.28;;;19.50;80.40;;;;;;5089973;28;20031;-72
2022/09/11 08:56:16;;;;;;;3.65;3.20;;;19.60;80.60;;;;;;5085365;28;20036;-72
2022/09/11 08:59:11;;;;;;;4.57;3.20;;;19.60;80.60;;;;;;5088051;28;20024;-70
2022/09/11 09:01:36;;;;;;;4.13;2.63;;;19.70;80.50;;;;;;5075937;28;20038;-71
2022/09/11 09:04:40;;;;;;;4.85;3.78;;;19.70;80.60;;;;;;5086339;28;20024;-71
2022/09/11 09:07:55;;;;;;;2.95;2.65;;;19.80;80.60;;;;;;5066587;28;20039;-72
2022/09/11 09:10:39;;;;;;;2.50;2.30;;;19.80;80.60;;;;;;5085912;28;20046;-70
2022/09/11 09:13:28;;;;;;;4.05;3.10;;;19.90;80.60;;;;;;5092113;28;20490;-71
2022/09/11 09:16:08;;;;;;;3.40;2.78;;;20.10;81.20;;;;;;5091843;28;20031;-72
2022/09/11 09:18:43;;;;;;;3.00;2.80;;;20.40;80.20;;;;;;5079872;28;20040;-72
2022/09/11 09:21:23;;;;;;;3.95;2.40;;;20.70;79.60;;;;;;5083101;28;20032;-72
2022/09/11 09:23:59;;;;;;;4.22;2.85;;;20.90;79.00;;;;;;5070092;28;20078;-72
2022/09/11 09:26:34;;;;;;;4.25;2.53;;;21.10;78.00;;;;;;5082607;28;20403;-72
2022/09/11 09:29:03;;;;;;;3.53;2.08;;;21.20;77.40;;;;;;5070044;28;20037;-72
2022/09/11 09:31:30;;;;;;;2.47;2.25;;;21.50;77.40;;;;;;5066615;28;20032;-72
2022/09/11 09:34:21;;;;;;;4.35;2.95;;;21.70;76.90;;;;;;5077734;28;20031;-72
2022/09/11 09:37:10;;;;;;;7.30;4.28;;;22.00;76.30;;;;;;5077429;28;20039;-71
2022/09/11 09:39:36;;;;;;;5.03;3.00;;;22.10;75.20;;;;;;5083609;28;20035;-72
2022/09/11 09:42:23;;;;;;;6.72;4.40;;;22.10;75.20;;;;;;5084291;28;20028;-72
2022/09/11 09:45:00;;;;;;;5.85;3.90;;;22.00;74.80;;;;;;5088883;28;20038;-69
2022/09/11 09:47:28;;;;;;;5.43;3.72;;;21.80;74.80;;;;;;5090582;28;20024;-71
2022/09/11 09:49:55;;;;;;;5.30;3.78;;;21.60;74.90;;;;;;5087126;28;20020;-71
2022/09/11 09:52:23;;;;;;;6.53;4.50;;;21.60;74.90;;;;;;5080359;28;20484;-71
2022/09/11 09:54:59;;;;;;;4.93;3.47;;;21.50;74.40;;;;;;5077960;28;20032;-72
2022/09/11 09:57:29;;;;;;;4.38;3.15;;;21.40;74.70;;;;;;5094841;28;20368;-69
2022/09/11 10:00:18;;;;;;;3.85;2.88;;;21.30;74.70;;;;;;5094571;28;20494;-69
2022/09/11 10:02:56;;;;;;;4.32;3.40;;;21.30;75.00;;;;;;5089550;28;20042;-69
2022/09/11 10:05:27;;;;;;;3.80;2.65;;;21.40;75.00;;;;;;5083201;28;20137;-71
2022/09/11 10:07:59;;;;;;;3.75;2.70;;;21.60;74.50;;;;;;5083454;28;20027;-69
2022/09/11 10:10:27;;;;;;;4.65;3.00;;;21.70;74.00;;;;;;5090019;28;20059;-69
2022/09/11 10:13:07;;;;;;;3.83;2.90;;;21.90;73.50;;;;;;5090952;28;20387;-69
2022/09/11 10:15:38;;;;;;;3.33;3.03;;;22.20;73.30;;;;;;5086789;28;20028;-72
2022/09/11 10:18:29;;;;;;;6.22;4.47;;;22.60;73.00;;;;;;5090426;28;20069;-71
2022/09/11 10:21:13;;;;;;;4.35;3.50;;;22.70;71.40;;;;;;5080201;28;20142;-71
2022/09/11 10:23:57;;;;;;;5.80;4.18;;;22.70;71.70;;;;;;5090675;28;20028;-71
2022/09/11 10:26:42;;;;;;;4.78;3.78;;;22.50;71.90;;;;;;5090578;28;20020;-71
2022/09/11 10:29:28;;;;;;;3.78;2.95;;;22.30;72.00;;;;;;5097356;28;20378;-71
2022/09/11 10:32:01;;;;;;;6.05;4.03;;;22.30;72.60;;;;;;5090309;28;20024;-71
2022/09/11 10:34:35;;;;;;;4.70;3.47;;;22.30;72.90;;;;;;5082220;28;20077;-69
2022/09/11 10:37:14;;;;;;;10.90;3.90;;;22.20;73.00;;;;;;5084200;28;20102;-69
2022/09/11 10:39:43;;;;;;;4.07;3.28;;;22.20;73.20;;;;;;5088570;28;20028;-71
2022/09/11 10:42:33;;;;;;;5.28;3.67;;;22.20;73.20;;;;;;5088516;28;20094;-71
2022/09/11 10:45:15;;;;;;;5.93;3.95;;;22.20;73.30;;;;;;5089483;28;20024;-71
2022/09/11 10:47:42;;;;;;;4.65;4.15;;;22.20;73.30;;;;;;5083292;28;20107;-72
2022/09/11 10:50:17;;;;;;;4.10;3.70;;;22.30;73.20;;;;;;5079728;28;20029;-69
2022/09/11 10:52:58;;;;;;;5.78;4.60;;;22.40;73.70;;;;;;5071881;28;20028;-72
2022/09/11 10:55:43;;;;;;;5.47;4.07;;;22.50;72.90;;;;;;5078243;28;20036;-71
2022/09/11 10:58:17;;;;;;;7.57;3.72;;;22.60;72.80;;;;;;5084251;28;20532;-72
2022/09/11 11:00:43;;;;;;;5.57;3.45;;;22.80;72.00;;;;;;5077722;28;20089;-71
2022/09/11 11:03:20;;;;;;;3.80;3.35;;;22.80;71.40;;;;;;5079891;28;20558;-69
2022/09/11 11:06:02;;;;;;;6.90;4.10;;;22.70;70.90;;;;;;5073027;28;20020;-69
2022/09/11 11:08:56;;;;;;;5.03;3.63;;;22.70;71.30;;;;;;5078601;28;20082;-72
2022/09/11 11:11:49;;;;;;;5.60;3.30;;;22.60;72.00;;;;;;5089250;28;20502;-71
2022/09/11 11:15:02;;;;;;;5.28;4.07;;;22.60;71.70;;;;;;5091961;28;20399;-69
2022/09/11 11:17:55;;;;;;;6.43;3.75;;;22.50;71.70;;;;;;5048705;28;20060;-69
2022/09/11 11:20:26;;;;;;;;;;;22.50;71.80;;;;;;5086478;28;20040;-69
2022/09/11 11:23:27;;;;;;;4.25;3.28;;;22.60;71.60;;;;;;5084302;28;19908;-69
2022/09/11 11:26:14;;;;;;;5.68;3.78;;;22.80;70.70;;;;;;5081959;28;20033;-72
2022/09/11 11:28:59;;;;;;;3.30;3.00;;;22.80;70.60;;;;;;5074725;28;20414;-69
2022/09/11 11:31:41;;;;;;;4.05;3.15;;;23.00;70.50;;;;;;5081068;28;20131;-69
2022/09/11 11:34:08;;;;;;;3.33;2.40;;;23.20;70.20;;;;;;5084507;28;20493;-72
2022/09/11 11:36:45;;;;;;;6.45;3.80;;;23.30;69.80;;;;;;5092190;28;20027;-72
2022/09/11 11:39:33;;;;;;;3.95;3.15;;;23.30;69.50;;;;;;5088991;28;20039;-72
2022/09/11 11:42:02;;;;;;;4.95;3.20;;;23.10;69.60;;;;;;5082627;28;20017;-70
2022/09/11 11:44:39;;;;;;;4.55;3.33;;;23.00;70.00;;;;;;5088954;28;20023;-72
2022/09/11 11:47:09;;;;;;;6.05;3.90;;;22.90;70.30;;;;;;5077110;28;20019;-72
2022/09/11 11:50:11;;;;;;;4.63;3.38;;;22.80;70.10;;;;;;5075388;28;20035;-72
2022/09/11 11:52:41;;;;;;;;;;;22.70;70.10;;;;;;5080585;28;20032;-72
2022/09/11 11:55:16;;;;;;;4.28;3.17;;;22.50;70.10;;;;;;5088220;28;19998;-72
2022/09/11 11:57:59;;;;;;;8.18;3.65;;;22.50;69.90;;;;;;5072608;28;20029;-69
2022/09/11 12:00:27;;;;;;;3.63;2.20;;;22.60;69.90;;;;;;5086090;28;20516;-72
2022/09/11 12:03:28;;;;;;;6.28;3.10;;;22.70;69.90;;;;;;5078171;28;20418;-67
2022/09/11 12:05:55;;;;;;;3.88;2.50;;;22.70;69.30;;;;;;5001064;28;20599;-68
2022/09/11 12:08:20;;;;;;;5.30;2.65;;;22.90;69.40;;;;;;5076650;28;20606;-68
2022/09/11 12:10:58;;;;;;;4.13;3.03;;;23.20;69.70;;;;;;5087952;28;20058;-70
2022/09/11 12:13:39;;;;;;;2.85;2.50;;;23.70;68.70;;;;;;5077113;28;20322;-67
2022/09/11 12:16:05;;;;;;;3.88;1.88;;;24.10;67.90;;;;;;5076296;28;20043;-70
2022/09/11 12:18:31;;;;;;;2.42;1.90;;;24.40;67.10;;;;;;5082459;28;20032;-71
2022/09/11 12:21:30;;;;;;;4.80;3.15;;;24.50;66.30;;;;;;5076631;28;20054;-71
2022/09/11 12:23:55;;;;;;;4.22;2.60;;;24.30;66.40;;;;;;5067081;28;20045;-70
2022/09/11 12:26:26;;;;;;;2.55;1.90;;;24.10;66.60;;;;;;5077858;28;20070;-70
2022/09/11 12:29:10;;;;;;;3.40;2.83;;;23.90;67.40;;;;;;5070061;28;20029;-67
2022/09/11 12:31:48;;;;;;;2.33;2.10;;;23.80;67.20;;;;;;5078380;28;20016;-67
2022/09/11 12:34:37;;;;;;;3.28;2.55;;;23.70;67.40;;;;;;5075776;28;20052;-68
2022/09/11 12:37:10;;;;;;;2.13;1.98;;;23.60;67.40;;;;;;5076641;28;20028;-68
2022/09/11 12:39:49;;;;;;;2.05;1.55;;;23.60;67.30;;;;;;5072084;28;20116;-69
2022/09/11 12:42:24;;;;;;;2.80;1.67;;;23.80;67.30;;;;;;5072369;28;20407;-72
2022/09/11 12:44:50;;;;;;;2.15;1.83;;;23.90;66.90;;;;;;5077393;28;20111;-72
2022/09/11 12:47:39;;;;;;;3.03;1.63;;;24.20;66.20;;;;;;5073635;28;20154;-72
2022/09/11 12:50:08;;;;;;;2.20;1.90;;;24.70;64.30;;;;;;5065501;28;20499;-72
2022/09/11 12:52:42;;;;;;;2.10;1.38;;;24.90;63.20;;;;;;5071702;28;20028;-72
2022/09/11 12:55:34;;;;;;;1.55;1.45;;;24.90;62.80;;;;;;5076037;28;20032;-69
2022/09/11 12:58:03;;;;;;;2.10;1.52;;;25.20;62.50;;;;;;5078311;28;20085;-69
2022/09/11 13:00:40;;;;;;;3.08;1.90;;;25.50;62.20;;;;;;5093481;27;20052;-71
2022/09/11 13:03:19;;;;;;;2.40;2.10;;;25.80;61.30;;;;;;5074294;28;20610;-72
2022/09/11 13:06:06;;;;;;;1.52;1.42;;;26.10;61.30;;;;;;5073285;28;20537;-72
2022/09/11 13:08:54;;;;;;;1.88;1.70;;;26.40;60.80;;;;;;5072734;28;20021;-71
2022/09/11 13:12:17;;;;;;;2.70;1.95;;;26.80;60.10;;;;;;5085411;28;20309;-71
2022/09/11 13:14:48;;;;;;;3.17;1.77;;;27.10;59.20;;;;;;5040191;28;20084;-72
2022/09/11 13:17:31;;;;;;;1.35;1.25;;;27.20;58.80;;;;;;5034833;28;20041;-71